TimeMST,TemperatureF,Dew PointF,Humidity,Sea Level PressureIn,VisibilityMPH,Wind Direction,Wind SpeedMPH,Gust SpeedMPH,PrecipitationIn,Events,Conditions,WindDirDegrees,DateUTC
12:11 AM,21.2,10.4,63,30.45,10.0,SSW,6.9,-,N/A,,Clear,200,2012-11-23 07:11:00
12:31 AM,21.2,10.4,63,30.44,10.0,SSW,4.6,-,N/A,,Clear,200,2012-11-23 07:31:00
12:51 AM,21.2,12.2,68,30.44,10.0,South,9.2,-,N/A,,Clear,190,2012-11-23 07:51:00
1:11 AM,23.0,14.0,68,30.43,10.0,South,8.1,-,N/A,,Clear,190,2012-11-23 08:11:00
1:31 AM,19.4,12.2,74,30.44,10.0,SSW,8.1,-,N/A,,Clear,200,2012-11-23 08:31:00
1:51 AM,23.0,14.0,68,30.44,10.0,SSW,10.4,-,N/A,,Clear,200,2012-11-23 08:51:00
2:11 AM,21.2,14.0,74,30.44,10.0,South,8.1,-,N/A,,Clear,190,2012-11-23 09:11:00
2:30 AM,19.4,12.2,74,30.44,10.0,South,8.1,-,N/A,,Clear,190,2012-11-23 09:30:00
2:50 AM,21.2,12.2,68,30.42,10.0,SSW,10.4,-,N/A,,Clear,200,2012-11-23 09:50:00
3:11 AM,19.4,12.2,74,30.43,10.0,South,8.1,-,N/A,,Clear,190,2012-11-23 10:11:00
3:31 AM,21.2,12.2,68,30.42,10.0,SSW,8.1,-,N/A,,Clear,200,2012-11-23 10:31:00
3:50 AM,19.4,12.2,74,30.41,10.0,SSW,8.1,-,N/A,,Clear,210,2012-11-23 10:50:00
4:10 AM,21.2,12.2,68,30.41,10.0,SW,9.2,-,N/A,,Clear,220,2012-11-23 11:10:00
4:31 AM,23.0,12.2,63,30.40,10.0,SSW,8.1,-,N/A,,Clear,210,2012-11-23 11:31:00
4:51 AM,21.2,12.2,68,30.41,10.0,SSW,4.6,-,N/A,,Clear,200,2012-11-23 11:51:00
5:11 AM,23.0,12.2,63,30.40,10.0,SSW,9.2,-,N/A,,Clear,210,2012-11-23 12:11:00
5:31 AM,23.0,12.2,63,30.41,10.0,South,5.8,-,N/A,,Clear,190,2012-11-23 12:31:00
5:51 AM,23.0,12.2,63,30.43,10.0,Calm,Calm,-,N/A,,Clear,0,2012-11-23 12:51:00
6:10 AM,23.0,12.2,63,30.43,10.0,SSW,8.1,-,N/A,,Clear,200,2012-11-23 13:10:00
6:30 AM,21.2,12.2,68,30.43,10.0,SSW,6.9,-,N/A,,Clear,210,2012-11-23 13:30:00
6:51 AM,23.0,12.2,63,30.43,10.0,SW,9.2,-,N/A,,Clear,220,2012-11-23 13:51:00
7:11 AM,23.0,12.2,63,30.43,10.0,SSW,8.1,-,N/A,,Clear,210,2012-11-23 14:11:00
7:31 AM,26.6,12.2,55,30.42,10.0,SSW,11.5,-,N/A,,Clear,210,2012-11-23 14:31:00
7:51 AM,28.4,10.4,47,30.43,10.0,South,12.7,-,N/A,,Clear,170,2012-11-23 14:51:00
8:11 AM,30.2,12.2,47,30.43,10.0,South,11.5,-,N/A,,Clear,190,2012-11-23 15:11:00
8:31 AM,32.0,12.2,44,30.43,10.0,South,11.5,-,N/A,,Clear,170,2012-11-23 15:31:00
8:51 AM,33.8,12.2,41,30.43,10.0,SSW,15.0,-,N/A,,Clear,200,2012-11-23 15:51:00
9:10 AM,35.6,12.2,38,30.44,10.0,South,15.0,-,N/A,,Clear,190,2012-11-23 16:10:00
9:31 AM,35.6,12.2,38,30.44,10.0,South,16.1,-,N/A,,Clear,190,2012-11-23 16:31:00
9:51 AM,39.2,12.2,33,30.45,10.0,South,13.8,-,N/A,,Clear,190,2012-11-23 16:51:00
10:10 AM,39.2,12.2,33,30.45,10.0,South,13.8,-,N/A,,Clear,170,2012-11-23 17:10:00
10:30 AM,41.0,12.2,31,30.44,10.0,SSW,13.8,-,N/A,,Clear,200,2012-11-23 17:30:00
10:51 AM,41.0,14.0,33,30.43,10.0,SSW,13.8,-,N/A,,Clear,200,2012-11-23 17:51:00
11:11 AM,42.8,14.0,31,30.42,10.0,SSW,13.8,-,N/A,,Clear,200,2012-11-23 18:11:00
11:31 AM,42.8,14.0,31,30.41,10.0,SSW,11.5,18.4,N/A,,Clear,210,2012-11-23 18:31:00
11:51 AM,44.6,14.0,29,30.41,10.0,SSW,10.4,17.3,N/A,,Clear,210,2012-11-23 18:51:00
12:11 PM,44.6,14.0,29,30.40,10.0,SSW,10.4,-,N/A,,Clear,210,2012-11-23 19:11:00
12:30 PM,46.4,14.0,27,30.39,10.0,South,11.5,-,N/A,,Clear,190,2012-11-23 19:30:00
12:51 PM,46.4,14.0,27,30.39,10.0,SSW,9.2,-,N/A,,Clear,210,2012-11-23 19:51:00
1:11 PM,50.0,14.0,24,30.38,10.0,SSW,8.1,-,N/A,,Clear,210,2012-11-23 20:11:00
1:31 PM,50.0,12.2,22,30.37,10.0,SW,6.9,-,N/A,,Clear,220,2012-11-23 20:31:00
1:50 PM,50.0,12.2,22,30.37,10.0,SW,6.9,-,N/A,,Clear,230,2012-11-23 20:50:00
2:11 PM,50.0,12.2,22,30.36,10.0,South,4.6,-,N/A,,Clear,190,2012-11-23 21:11:00
2:31 PM,50.0,14.0,24,30.36,10.0,South,6.9,-,N/A,,Clear,180,2012-11-23 21:31:00
2:51 PM,48.2,14.0,25,30.36,10.0,SW,8.1,-,N/A,,Clear,220,2012-11-23 21:51:00
3:11 PM,46.4,12.2,25,30.36,10.0,SSW,9.2,-,N/A,,Clear,210,2012-11-23 22:11:00
3:31 PM,46.4,12.2,25,30.35,10.0,SSW,10.4,-,N/A,,Clear,200,2012-11-23 22:31:00
3:51 PM,44.6,12.2,27,30.35,10.0,SSW,13.8,-,N/A,,Clear,200,2012-11-23 22:51:00
4:11 PM,42.8,12.2,29,30.35,10.0,SSW,9.2,-,N/A,,Clear,200,2012-11-23 23:11:00
4:31 PM,37.4,12.2,36,30.35,10.0,South,9.2,-,N/A,,Clear,190,2012-11-23 23:31:00
4:51 PM,33.8,12.2,41,30.35,10.0,South,10.4,-,N/A,,Clear,190,2012-11-23 23:51:00
5:11 PM,33.8,12.2,41,30.34,10.0,SSW,11.5,-,N/A,,Clear,200,2012-11-24 00:11:00
5:30 PM,33.8,12.2,41,30.34,10.0,SSW,11.5,-,N/A,,Clear,200,2012-11-24 00:30:00
5:51 PM,32.0,12.2,44,30.34,10.0,South,11.5,-,N/A,,Clear,190,2012-11-24 00:51:00
6:11 PM,32.0,12.2,44,30.32,10.0,SSW,13.8,-,N/A,,Clear,200,2012-11-24 01:11:00
6:31 PM,32.0,12.2,44,30.32,10.0,SSW,12.7,-,N/A,,Clear,200,2012-11-24 01:31:00
6:51 PM,32.0,12.2,44,30.32,10.0,SW,11.5,-,N/A,,Clear,220,2012-11-24 01:51:00
7:11 PM,32.0,12.2,44,30.32,10.0,SSW,6.9,-,N/A,,Clear,210,2012-11-24 02:11:00
7:31 PM,30.2,14.0,51,30.32,10.0,SSW,10.4,-,N/A,,Clear,200,2012-11-24 02:31:00
7:51 PM,32.0,14.0,48,30.32,10.0,SSW,10.4,-,N/A,,Clear,200,2012-11-24 02:51:00
8:11 PM,32.0,14.0,48,30.32,10.0,SSW,8.1,-,N/A,,Clear,200,2012-11-24 03:11:00
8:31 PM,32.0,14.0,48,30.31,10.0,SSW,9.2,-,N/A,,Clear,200,2012-11-24 03:31:00
8:51 PM,32.0,14.0,48,30.30,10.0,SSW,9.2,-,N/A,,Clear,210,2012-11-24 03:51:00
9:11 PM,35.6,12.2,38,30.30,10.0,SSW,10.4,-,N/A,,Clear,210,2012-11-24 04:11:00
9:31 PM,35.6,10.4,35,30.29,10.0,SW,11.5,-,N/A,,Clear,220,2012-11-24 04:31:00
9:51 PM,35.6,10.4,35,30.28,10.0,SW,12.7,-,N/A,,Clear,220,2012-11-24 04:51:00
10:11 PM,33.8,10.4,38,30.28,10.0,SSW,10.4,-,N/A,,Clear,210,2012-11-24 05:11:00
10:31 PM,35.6,10.4,35,30.28,10.0,SW,10.4,-,N/A,,Clear,220,2012-11-24 05:31:00
10:50 PM,35.6,10.4,35,30.27,10.0,SW,9.2,-,N/A,,Clear,230,2012-11-24 05:50:00
11:11 PM,35.6,10.4,35,30.26,10.0,SW,10.4,-,N/A,,Clear,230,2012-11-24 06:11:00
11:31 PM,33.8,8.6,35,30.26,10.0,SW,11.5,-,N/A,,Clear,230,2012-11-24 06:31:00
11:51 PM,37.4,8.6,30,30.26,10.0,SW,10.4,-,N/A,,Clear,230,2012-11-24 06:51:00